sensor_id;sensor_type;location;lat;lon;timestamp;P1;durP1;ratioP1;P2;durP2;ratioP2
74849;SDS011;63397;47.480;19.238;2022-12-04T00:02:54;43.55;;;18.08;;
74849;SDS011;63397;47.480;19.238;2022-12-04T00:06:30;43.55;;;17.60;;
74849;SDS011;63397;47.480;19.238;2022-12-04T00:09:25;43.80;;;18.27;;
74849;SDS011;63397;47.480;19.238;2022-12-04T00:12:27;43.80;;;17.90;;
74849;SDS011;63397;47.480;19.238;2022-12-04T00:15:30;45.10;;;18.85;;
74849;SDS011;63397;47.480;19.238;2022-12-04T00:18:32;49.20;;;19.27;;
74849;SDS011;63397;47.480;19.238;2022-12-04T00:21:35;44.45;;;17.90;;
74849;SDS011;63397;47.480;19.238;2022-12-04T00:24:37;47.80;;;18.90;;
74849;SDS011;63397;47.480;19.238;2022-12-04T00:27:40;48.67;;;19.25;;
74849;SDS011;63397;47.480;19.238;2022-12-04T00:30:42;48.53;;;17.65;;
74849;SDS011;63397;47.480;19.238;2022-12-04T00:33:45;42.15;;;17.52;;
74849;SDS011;63397;47.480;19.238;2022-12-04T00:36:47;43.03;;;17.60;;
74849;SDS011;63397;47.480;19.238;2022-12-04T00:39:50;41.83;;;16.80;;
74849;SDS011;63397;47.480;19.238;2022-12-04T00:42:52;48.40;;;18.08;;
74849;SDS011;63397;47.480;19.238;2022-12-04T00:45:54;45.80;;;17.48;;
74849;SDS011;63397;47.480;19.238;2022-12-04T00:48:57;48.45;;;19.10;;
74849;SDS011;63397;47.480;19.238;2022-12-04T00:52:02;43.88;;;18.02;;
74849;SDS011;63397;47.480;19.238;2022-12-04T00:55:05;39.10;;;16.87;;
74849;SDS011;63397;47.480;19.238;2022-12-04T00:58:07;48.05;;;18.33;;
74849;SDS011;63397;47.480;19.238;2022-12-04T01:01:11;45.85;;;17.17;;
74849;SDS011;63397;47.480;19.238;2022-12-04T01:04:14;45.15;;;17.98;;
74849;SDS011;63397;47.480;19.238;2022-12-04T01:07:16;44.97;;;17.73;;
74849;SDS011;63397;47.480;19.238;2022-12-04T01:10:18;47.37;;;17.87;;
74849;SDS011;63397;47.480;19.238;2022-12-04T01:13:21;49.63;;;18.25;;
74849;SDS011;63397;47.480;19.238;2022-12-04T01:16:26;48.33;;;19.23;;
74849;SDS011;63397;47.480;19.238;2022-12-04T01:19:28;45.70;;;18.27;;
74849;SDS011;63397;47.480;19.238;2022-12-04T01:22:31;46.90;;;19.10;;
74849;SDS011;63397;47.480;19.238;2022-12-04T01:25:33;52.37;;;19.43;;
74849;SDS011;63397;47.480;19.238;2022-12-04T01:28:35;43.88;;;18.55;;
74849;SDS011;63397;47.480;19.238;2022-12-04T01:31:37;43.47;;;17.50;;
74849;SDS011;63397;47.480;19.238;2022-12-04T01:34:40;51.95;;;20.15;;
74849;SDS011;63397;47.480;19.238;2022-12-04T01:37:42;53.85;;;18.90;;
74849;SDS011;63397;47.480;19.238;2022-12-04T01:40:44;51.77;;;20.90;;
74849;SDS011;63397;47.480;19.238;2022-12-04T01:47:08;56.20;;;21.10;;
74849;SDS011;63397;47.480;19.238;2022-12-04T01:50:10;58.33;;;19.73;;
74849;SDS011;63397;47.480;19.238;2022-12-04T01:53:13;49.55;;;20.17;;
74849;SDS011;63397;47.480;19.238;2022-12-04T01:56:15;49.93;;;20.07;;
74849;SDS011;63397;47.480;19.238;2022-12-04T01:59:21;51.75;;;20.25;;
74849;SDS011;63397;47.480;19.238;2022-12-04T02:02:28;49.13;;;19.92;;
74849;SDS011;63397;47.480;19.238;2022-12-04T02:05:31;45.95;;;20.45;;
74849;SDS011;63397;47.480;19.238;2022-12-04T02:08:34;49.13;;;20.10;;
74849;SDS011;63397;47.480;19.238;2022-12-04T02:11:38;48.93;;;20.23;;
74849;SDS011;63397;47.480;19.238;2022-12-04T02:14:45;51.40;;;20.67;;
74849;SDS011;63397;47.480;19.238;2022-12-04T02:17:57;52.30;;;20.48;;
74849;SDS011;63397;47.480;19.238;2022-12-04T02:24:21;56.10;;;21.75;;
74849;SDS011;63397;47.480;19.238;2022-12-04T02:27:41;55.37;;;21.20;;
74849;SDS011;63397;47.480;19.238;2022-12-04T02:30:44;55.20;;;20.92;;
74849;SDS011;63397;47.480;19.238;2022-12-04T02:33:48;54.55;;;21.35;;
74849;SDS011;63397;47.480;19.238;2022-12-04T02:37:01;61.97;;;22.40;;
74849;SDS011;63397;47.480;19.238;2022-12-04T02:40:07;61.80;;;24.50;;
74849;SDS011;63397;47.480;19.238;2022-12-04T02:43:17;75.00;;;25.93;;
74849;SDS011;63397;47.480;19.238;2022-12-04T02:46:29;65.07;;;25.00;;
74849;SDS011;63397;47.480;19.238;2022-12-04T02:49:37;65.50;;;24.38;;
74849;SDS011;63397;47.480;19.238;2022-12-04T02:52:43;65.63;;;23.95;;
74849;SDS011;63397;47.480;19.238;2022-12-04T02:55:49;65.88;;;23.73;;
74849;SDS011;63397;47.480;19.238;2022-12-04T02:58:57;59.17;;;22.07;;
74849;SDS011;63397;47.480;19.238;2022-12-04T03:02:01;61.63;;;22.67;;
74849;SDS011;63397;47.480;19.238;2022-12-04T03:05:08;63.08;;;23.58;;
74849;SDS011;63397;47.480;19.238;2022-12-04T03:08:13;62.63;;;23.17;;
74849;SDS011;63397;47.480;19.238;2022-12-04T03:11:17;66.90;;;23.70;;
74849;SDS011;63397;47.480;19.238;2022-12-04T03:14:21;64.33;;;24.23;;
74849;SDS011;63397;47.480;19.238;2022-12-04T03:17:27;69.15;;;24.27;;
74849;SDS011;63397;47.480;19.238;2022-12-04T03:20:31;67.15;;;24.17;;
74849;SDS011;63397;47.480;19.238;2022-12-04T03:23:42;65.68;;;23.83;;
74849;SDS011;63397;47.480;19.238;2022-12-04T03:26:46;74.78;;;26.38;;
74849;SDS011;63397;47.480;19.238;2022-12-04T03:29:51;67.67;;;24.67;;
74849;SDS011;63397;47.480;19.238;2022-12-04T03:33:14;75.18;;;25.65;;
74849;SDS011;63397;47.480;19.238;2022-12-04T03:39:21;80.55;;;27.48;;
74849;SDS011;63397;47.480;19.238;2022-12-04T03:42:27;88.68;;;27.65;;
74849;SDS011;63397;47.480;19.238;2022-12-04T03:45:43;90.87;;;28.07;;
74849;SDS011;63397;47.480;19.238;2022-12-04T03:48:49;94.70;;;30.13;;
74849;SDS011;63397;47.480;19.238;2022-12-04T03:52:14;85.57;;;28.20;;
74849;SDS011;63397;47.480;19.238;2022-12-04T03:58:24;95.05;;;30.73;;
74849;SDS011;63397;47.480;19.238;2022-12-04T04:01:31;97.50;;;29.77;;
74849;SDS011;63397;47.480;19.238;2022-12-04T04:04:35;111.35;;;34.75;;
74849;SDS011;63397;47.480;19.238;2022-12-04T04:07:57;99.40;;;32.97;;
74849;SDS011;63397;47.480;19.238;2022-12-04T04:11:27;101.03;;;32.17;;
74849;SDS011;63397;47.480;19.238;2022-12-04T04:14:34;97.53;;;29.10;;
74849;SDS011;63397;47.480;19.238;2022-12-04T04:17:57;95.23;;;30.00;;
74849;SDS011;63397;47.480;19.238;2022-12-04T04:21:20;106.05;;;31.05;;
74849;SDS011;63397;47.480;19.238;2022-12-04T04:24:46;87.93;;;29.10;;
74849;SDS011;63397;47.480;19.238;2022-12-04T04:27:50;85.38;;;27.92;;
74849;SDS011;63397;47.480;19.238;2022-12-04T04:30:53;82.07;;;27.42;;
74849;SDS011;63397;47.480;19.238;2022-12-04T04:37:09;84.90;;;27.75;;
74849;SDS011;63397;47.480;19.238;2022-12-04T04:43:45;87.30;;;27.33;;
74849;SDS011;63397;47.480;19.238;2022-12-04T04:46:51;80.05;;;27.70;;
74849;SDS011;63397;47.480;19.238;2022-12-04T04:49:55;83.60;;;28.73;;
74849;SDS011;63397;47.480;19.238;2022-12-04T04:53:00;83.25;;;27.75;;
74849;SDS011;63397;47.480;19.238;2022-12-04T04:56:03;79.60;;;26.90;;
74849;SDS011;63397;47.480;19.238;2022-12-04T04:59:06;73.80;;;26.33;;
74849;SDS011;63397;47.480;19.238;2022-12-04T05:02:09;81.53;;;26.95;;
74849;SDS011;63397;47.480;19.238;2022-12-04T05:05:11;73.47;;;25.67;;
74849;SDS011;63397;47.480;19.238;2022-12-04T05:08:14;77.15;;;26.52;;
74849;SDS011;63397;47.480;19.238;2022-12-04T05:11:16;92.88;;;27.48;;
74849;SDS011;63397;47.480;19.238;2022-12-04T05:14:19;76.57;;;26.30;;
74849;SDS011;63397;47.480;19.238;2022-12-04T05:17:21;75.82;;;26.10;;
74849;SDS011;63397;47.480;19.238;2022-12-04T05:20:23;82.90;;;27.50;;
74849;SDS011;63397;47.480;19.238;2022-12-04T05:23:25;94.32;;;29.75;;
74849;SDS011;63397;47.480;19.238;2022-12-04T05:26:27;102.78;;;30.10;;
74849;SDS011;63397;47.480;19.238;2022-12-04T05:29:30;101.53;;;31.17;;
74849;SDS011;63397;47.480;19.238;2022-12-04T05:32:36;125.07;;;35.55;;
74849;SDS011;63397;47.480;19.238;2022-12-04T05:35:39;127.57;;;34.73;;
74849;SDS011;63397;47.480;19.238;2022-12-04T05:38:41;120.32;;;32.58;;
74849;SDS011;63397;47.480;19.238;2022-12-04T05:41:43;110.38;;;32.03;;
74849;SDS011;63397;47.480;19.238;2022-12-04T05:44:46;121.75;;;34.25;;
74849;SDS011;63397;47.480;19.238;2022-12-04T05:47:48;122.45;;;36.50;;
74849;SDS011;63397;47.480;19.238;2022-12-04T05:50:51;98.97;;;30.20;;
74849;SDS011;63397;47.480;19.238;2022-12-04T05:53:53;127.55;;;34.40;;
74849;SDS011;63397;47.480;19.238;2022-12-04T05:56:55;129.73;;;34.17;;
74849;SDS011;63397;47.480;19.238;2022-12-04T05:59:57;135.27;;;35.92;;
74849;SDS011;63397;47.480;19.238;2022-12-04T06:03:00;144.38;;;36.28;;
74849;SDS011;63397;47.480;19.238;2022-12-04T06:06:02;133.17;;;36.20;;
74849;SDS011;63397;47.480;19.238;2022-12-04T06:09:06;139.85;;;37.10;;
74849;SDS011;63397;47.480;19.238;2022-12-04T06:12:08;130.07;;;32.20;;
74849;SDS011;63397;47.480;19.238;2022-12-04T06:15:10;121.35;;;33.85;;
74849;SDS011;63397;47.480;19.238;2022-12-04T06:18:13;113.63;;;32.15;;
74849;SDS011;63397;47.480;19.238;2022-12-04T06:21:15;119.07;;;32.90;;
74849;SDS011;63397;47.480;19.238;2022-12-04T06:24:19;148.57;;;35.88;;
74849;SDS011;63397;47.480;19.238;2022-12-04T06:27:21;121.60;;;33.67;;
74849;SDS011;63397;47.480;19.238;2022-12-04T06:30:29;119.78;;;32.75;;
74849;SDS011;63397;47.480;19.238;2022-12-04T06:33:31;155.32;;;39.30;;
74849;SDS011;63397;47.480;19.238;2022-12-04T06:36:34;120.10;;;34.07;;
74849;SDS011;63397;47.480;19.238;2022-12-04T06:39:36;140.52;;;37.17;;
74849;SDS011;63397;47.480;19.238;2022-12-04T06:42:38;170.55;;;38.40;;
74849;SDS011;63397;47.480;19.238;2022-12-04T06:45:41;200.07;;;46.00;;
74849;SDS011;63397;47.480;19.238;2022-12-04T06:48:44;178.52;;;40.90;;
74849;SDS011;63397;47.480;19.238;2022-12-04T06:51:46;162.20;;;38.20;;
74849;SDS011;63397;47.480;19.238;2022-12-04T06:54:48;145.18;;;35.13;;
74849;SDS011;63397;47.480;19.238;2022-12-04T06:57:50;166.70;;;41.33;;
74849;SDS011;63397;47.480;19.238;2022-12-04T07:00:53;147.57;;;37.88;;
74849;SDS011;63397;47.480;19.238;2022-12-04T07:03:56;137.60;;;35.95;;
74849;SDS011;63397;47.480;19.238;2022-12-04T07:06:58;137.57;;;36.77;;
74849;SDS011;63397;47.480;19.238;2022-12-04T07:10:01;133.77;;;35.08;;
74849;SDS011;63397;47.480;19.238;2022-12-04T07:13:03;121.38;;;34.08;;
74849;SDS011;63397;47.480;19.238;2022-12-04T07:16:06;121.40;;;34.50;;
74849;SDS011;63397;47.480;19.238;2022-12-04T07:19:09;112.35;;;34.05;;
74849;SDS011;63397;47.480;19.238;2022-12-04T07:22:12;119.00;;;34.80;;
74849;SDS011;63397;47.480;19.238;2022-12-04T07:25:14;115.53;;;34.25;;
74849;SDS011;63397;47.480;19.238;2022-12-04T07:28:17;107.68;;;33.22;;
74849;SDS011;63397;47.480;19.238;2022-12-04T07:31:20;104.85;;;33.05;;
74849;SDS011;63397;47.480;19.238;2022-12-04T07:34:23;111.05;;;33.53;;
74849;SDS011;63397;47.480;19.238;2022-12-04T07:37:25;95.17;;;31.87;;
74849;SDS011;63397;47.480;19.238;2022-12-04T07:40:27;106.95;;;32.65;;
74849;SDS011;63397;47.480;19.238;2022-12-04T07:43:30;94.05;;;31.80;;
74849;SDS011;63397;47.480;19.238;2022-12-04T07:46:32;101.63;;;32.92;;
74849;SDS011;63397;47.480;19.238;2022-12-04T07:49:35;106.70;;;36.30;;
74849;SDS011;63397;47.480;19.238;2022-12-04T07:52:38;98.63;;;31.67;;
74849;SDS011;63397;47.480;19.238;2022-12-04T07:55:40;101.15;;;33.90;;
74849;SDS011;63397;47.480;19.238;2022-12-04T07:58:42;86.25;;;30.48;;
74849;SDS011;63397;47.480;19.238;2022-12-04T08:01:45;77.78;;;28.42;;
74849;SDS011;63397;47.480;19.238;2022-12-04T08:04:47;74.40;;;26.52;;
74849;SDS011;63397;47.480;19.238;2022-12-04T08:07:50;65.83;;;26.00;;
74849;SDS011;63397;47.480;19.238;2022-12-04T08:10:53;74.78;;;26.52;;
74849;SDS011;63397;47.480;19.238;2022-12-04T08:13:56;74.22;;;26.15;;
74849;SDS011;63397;47.480;19.238;2022-12-04T08:16:58;71.55;;;27.38;;
74849;SDS011;63397;47.480;19.238;2022-12-04T08:20:01;62.53;;;23.85;;
74849;SDS011;63397;47.480;19.238;2022-12-04T08:23:04;66.00;;;24.60;;
74849;SDS011;63397;47.480;19.238;2022-12-04T08:26:06;64.97;;;24.40;;
74849;SDS011;63397;47.480;19.238;2022-12-04T08:29:08;71.95;;;25.20;;
74849;SDS011;63397;47.480;19.238;2022-12-04T08:32:11;69.10;;;25.77;;
74849;SDS011;63397;47.480;19.238;2022-12-04T08:35:13;66.45;;;26.33;;
74849;SDS011;63397;47.480;19.238;2022-12-04T08:38:16;63.70;;;23.83;;
74849;SDS011;63397;47.480;19.238;2022-12-04T08:41:19;64.25;;;23.77;;
74849;SDS011;63397;47.480;19.238;2022-12-04T08:44:22;61.65;;;24.40;;
74849;SDS011;63397;47.480;19.238;2022-12-04T08:47:24;62.67;;;23.45;;
74849;SDS011;63397;47.480;19.238;2022-12-04T08:50:26;64.22;;;24.40;;
74849;SDS011;63397;47.480;19.238;2022-12-04T08:53:29;65.50;;;24.03;;
74849;SDS011;63397;47.480;19.238;2022-12-04T08:56:32;52.13;;;22.27;;
74849;SDS011;63397;47.480;19.238;2022-12-04T08:59:35;58.28;;;25.80;;
74849;SDS011;63397;47.480;19.238;2022-12-04T09:02:37;55.08;;;21.55;;
74849;SDS011;63397;47.480;19.238;2022-12-04T09:05:39;62.65;;;23.92;;
74849;SDS011;63397;47.480;19.238;2022-12-04T09:08:42;58.47;;;22.77;;
74849;SDS011;63397;47.480;19.238;2022-12-04T09:11:45;56.50;;;23.40;;
74849;SDS011;63397;47.480;19.238;2022-12-04T09:14:47;61.92;;;23.63;;
74849;SDS011;63397;47.480;19.238;2022-12-04T09:17:50;61.88;;;24.40;;
74849;SDS011;63397;47.480;19.238;2022-12-04T09:20:56;61.70;;;23.38;;
74849;SDS011;63397;47.480;19.238;2022-12-04T09:23:59;59.40;;;22.93;;
74849;SDS011;63397;47.480;19.238;2022-12-04T09:27:01;61.75;;;23.35;;
74849;SDS011;63397;47.480;19.238;2022-12-04T09:30:04;60.70;;;23.48;;
74849;SDS011;63397;47.480;19.238;2022-12-04T09:33:07;64.30;;;26.05;;
74849;SDS011;63397;47.480;19.238;2022-12-04T09:36:10;60.58;;;23.33;;
74849;SDS011;63397;47.480;19.238;2022-12-04T09:39:17;54.43;;;22.13;;
74849;SDS011;63397;47.480;19.238;2022-12-04T09:45:45;51.78;;;20.52;;
74849;SDS011;63397;47.480;19.238;2022-12-04T09:48:52;46.10;;;18.80;;
74849;SDS011;63397;47.480;19.238;2022-12-04T09:51:58;53.97;;;21.13;;
74849;SDS011;63397;47.480;19.238;2022-12-04T09:55:01;55.13;;;19.30;;
74849;SDS011;63397;47.480;19.238;2022-12-04T09:58:06;47.55;;;18.80;;
74849;SDS011;63397;47.480;19.238;2022-12-04T10:01:24;46.00;;;19.13;;
74849;SDS011;63397;47.480;19.238;2022-12-04T10:04:28;46.20;;;18.73;;
74849;SDS011;63397;47.480;19.238;2022-12-04T10:07:32;42.08;;;17.83;;
74849;SDS011;63397;47.480;19.238;2022-12-04T10:10:39;42.80;;;18.27;;
74849;SDS011;63397;47.480;19.238;2022-12-04T10:23:18;34.20;;;15.23;;
74849;SDS011;63397;47.480;19.238;2022-12-04T10:26:25;36.13;;;14.90;;
74849;SDS011;63397;47.480;19.238;2022-12-04T10:29:30;34.70;;;15.02;;
74849;SDS011;63397;47.480;19.238;2022-12-04T10:32:34;30.55;;;14.30;;
74849;SDS011;63397;47.480;19.238;2022-12-04T10:35:37;35.60;;;15.10;;
74849;SDS011;63397;47.480;19.238;2022-12-04T10:38:44;33.17;;;14.20;;
74849;SDS011;63397;47.480;19.238;2022-12-04T10:41:53;31.13;;;13.00;;
74849;SDS011;63397;47.480;19.238;2022-12-04T10:44:58;32.38;;;13.60;;
74849;SDS011;63397;47.480;19.238;2022-12-04T10:48:00;30.50;;;13.93;;
74849;SDS011;63397;47.480;19.238;2022-12-04T10:51:02;29.02;;;12.23;;
74849;SDS011;63397;47.480;19.238;2022-12-04T10:54:18;24.98;;;11.55;;
74849;SDS011;63397;47.480;19.238;2022-12-04T10:57:32;29.97;;;12.67;;
74849;SDS011;63397;47.480;19.238;2022-12-04T11:00:35;30.48;;;12.75;;
74849;SDS011;63397;47.480;19.238;2022-12-04T11:03:37;25.27;;;12.32;;
74849;SDS011;63397;47.480;19.238;2022-12-04T11:06:40;27.55;;;12.20;;
74849;SDS011;63397;47.480;19.238;2022-12-04T11:09:42;25.70;;;12.27;;
74849;SDS011;63397;47.480;19.238;2022-12-04T11:12:58;25.17;;;11.73;;
74849;SDS011;63397;47.480;19.238;2022-12-04T11:16:01;30.55;;;12.68;;
74849;SDS011;63397;47.480;19.238;2022-12-04T11:19:17;31.55;;;13.77;;
74849;SDS011;63397;47.480;19.238;2022-12-04T11:22:20;28.90;;;12.98;;
74849;SDS011;63397;47.480;19.238;2022-12-04T11:25:24;28.27;;;12.82;;
74849;SDS011;63397;47.480;19.238;2022-12-04T11:28:28;28.87;;;12.70;;
74849;SDS011;63397;47.480;19.238;2022-12-04T11:31:48;28.08;;;13.00;;
74849;SDS011;63397;47.480;19.238;2022-12-04T11:34:51;27.92;;;12.23;;
74849;SDS011;63397;47.480;19.238;2022-12-04T11:38:00;26.55;;;12.85;;
74849;SDS011;63397;47.480;19.238;2022-12-04T11:41:04;28.70;;;12.30;;
74849;SDS011;63397;47.480;19.238;2022-12-04T11:47:39;27.38;;;12.55;;
74849;SDS011;63397;47.480;19.238;2022-12-04T11:50:53;28.05;;;12.70;;
74849;SDS011;63397;47.480;19.238;2022-12-04T11:54:00;25.63;;;11.00;;
74849;SDS011;63397;47.480;19.238;2022-12-04T11:57:15;25.17;;;11.18;;
74849;SDS011;63397;47.480;19.238;2022-12-04T12:00:21;23.20;;;11.27;;
74849;SDS011;63397;47.480;19.238;2022-12-04T12:03:33;27.30;;;11.60;;
74849;SDS011;63397;47.480;19.238;2022-12-04T12:06:53;26.50;;;11.02;;
74849;SDS011;63397;47.480;19.238;2022-12-04T12:10:03;25.25;;;10.75;;
74849;SDS011;63397;47.480;19.238;2022-12-04T12:35:13;22.02;;;10.57;;
74849;SDS011;63397;47.480;19.238;2022-12-04T12:38:22;25.88;;;11.27;;
74849;SDS011;63397;47.480;19.238;2022-12-04T12:41:27;23.98;;;11.27;;
74849;SDS011;63397;47.480;19.238;2022-12-04T12:44:32;22.83;;;10.05;;
74849;SDS011;63397;47.480;19.238;2022-12-04T12:47:40;22.30;;;10.20;;
74849;SDS011;63397;47.480;19.238;2022-12-04T12:50:44;23.05;;;9.88;;
74849;SDS011;63397;47.480;19.238;2022-12-04T12:57:19;26.00;;;11.57;;
74849;SDS011;63397;47.480;19.238;2022-12-04T13:00:24;24.08;;;10.77;;
74849;SDS011;63397;47.480;19.238;2022-12-04T13:06:39;27.48;;;11.55;;
74849;SDS011;63397;47.480;19.238;2022-12-04T13:09:52;25.10;;;11.32;;
74849;SDS011;63397;47.480;19.238;2022-12-04T13:16:02;23.17;;;10.90;;
74849;SDS011;63397;47.480;19.238;2022-12-04T13:19:09;25.20;;;10.97;;
74849;SDS011;63397;47.480;19.238;2022-12-04T13:25:47;26.20;;;11.88;;
74849;SDS011;63397;47.480;19.238;2022-12-04T13:41:38;24.35;;;11.27;;
74849;SDS011;63397;47.480;19.238;2022-12-04T13:44:40;27.90;;;11.95;;
74849;SDS011;63397;47.480;19.238;2022-12-04T13:47:43;27.38;;;12.02;;
74849;SDS011;63397;47.480;19.238;2022-12-04T13:51:04;26.73;;;11.33;;
74849;SDS011;63397;47.480;19.238;2022-12-04T13:57:17;32.80;;;12.98;;
74849;SDS011;63397;47.480;19.238;2022-12-04T14:00:28;27.02;;;13.35;;
74849;SDS011;63397;47.480;19.238;2022-12-04T14:03:32;29.38;;;13.45;;
74849;SDS011;63397;47.480;19.238;2022-12-04T14:06:38;30.23;;;12.90;;
74849;SDS011;63397;47.480;19.238;2022-12-04T14:09:47;30.10;;;13.45;;
74849;SDS011;63397;47.480;19.238;2022-12-04T14:13:26;31.35;;;13.77;;
74849;SDS011;63397;47.480;19.238;2022-12-04T14:19:34;35.00;;;15.60;;
74849;SDS011;63397;47.480;19.238;2022-12-04T14:22:40;32.40;;;13.90;;
74849;SDS011;63397;47.480;19.238;2022-12-04T14:25:43;34.35;;;14.30;;
74849;SDS011;63397;47.480;19.238;2022-12-04T14:28:45;32.65;;;14.25;;
74849;SDS011;63397;47.480;19.238;2022-12-04T14:31:47;33.25;;;14.13;;
74849;SDS011;63397;47.480;19.238;2022-12-04T14:34:50;39.88;;;15.75;;
74849;SDS011;63397;47.480;19.238;2022-12-04T14:37:55;40.93;;;16.70;;
74849;SDS011;63397;47.480;19.238;2022-12-04T14:40:58;45.03;;;16.88;;
74849;SDS011;63397;47.480;19.238;2022-12-04T14:44:04;47.42;;;17.85;;
74849;SDS011;63397;47.480;19.238;2022-12-04T14:50:33;37.92;;;15.27;;
74849;SDS011;63397;47.480;19.238;2022-12-04T14:56:47;39.20;;;15.82;;
74849;SDS011;63397;47.480;19.238;2022-12-04T14:59:53;35.78;;;16.15;;
74849;SDS011;63397;47.480;19.238;2022-12-04T15:02:59;37.85;;;16.50;;
74849;SDS011;63397;47.480;19.238;2022-12-04T15:06:06;41.38;;;17.50;;
74849;SDS011;63397;47.480;19.238;2022-12-04T15:09:13;38.23;;;16.70;;
74849;SDS011;63397;47.480;19.238;2022-12-04T15:12:54;37.95;;;17.25;;
74849;SDS011;63397;47.480;19.238;2022-12-04T15:15:56;42.33;;;18.67;;
74849;SDS011;63397;47.480;19.238;2022-12-04T15:18:59;38.83;;;17.42;;
74849;SDS011;63397;47.480;19.238;2022-12-04T15:22:07;42.60;;;18.35;;
74849;SDS011;63397;47.480;19.238;2022-12-04T15:25:19;45.53;;;18.77;;
74849;SDS011;63397;47.480;19.238;2022-12-04T15:28:28;50.30;;;20.48;;
74849;SDS011;63397;47.480;19.238;2022-12-04T15:31:36;41.40;;;19.13;;
74849;SDS011;63397;47.480;19.238;2022-12-04T15:34:45;44.85;;;19.58;;
74849;SDS011;63397;47.480;19.238;2022-12-04T15:37:49;43.78;;;18.67;;
74849;SDS011;63397;47.480;19.238;2022-12-04T15:40:55;47.43;;;20.37;;
74849;SDS011;63397;47.480;19.238;2022-12-04T15:43:58;45.30;;;19.83;;
74849;SDS011;63397;47.480;19.238;2022-12-04T15:47:02;42.15;;;19.33;;
74849;SDS011;63397;47.480;19.238;2022-12-04T15:53:14;40.70;;;18.13;;
74849;SDS011;63397;47.480;19.238;2022-12-04T15:56:19;43.90;;;17.83;;
74849;SDS011;63397;47.480;19.238;2022-12-04T15:59:22;43.92;;;18.70;;
74849;SDS011;63397;47.480;19.238;2022-12-04T16:02:27;44.30;;;17.90;;
74849;SDS011;63397;47.480;19.238;2022-12-04T16:05:32;40.63;;;16.98;;
74849;SDS011;63397;47.480;19.238;2022-12-04T16:08:37;37.58;;;16.48;;
74849;SDS011;63397;47.480;19.238;2022-12-04T16:11:41;38.43;;;17.77;;
74849;SDS011;63397;47.480;19.238;2022-12-04T16:14:45;37.33;;;15.48;;
74849;SDS011;63397;47.480;19.238;2022-12-04T16:17:47;35.78;;;15.52;;
74849;SDS011;63397;47.480;19.238;2022-12-04T16:20:50;35.58;;;14.82;;
74849;SDS011;63397;47.480;19.238;2022-12-04T16:23:52;34.45;;;14.50;;
74849;SDS011;63397;47.480;19.238;2022-12-04T16:26:55;35.97;;;15.87;;
74849;SDS011;63397;47.480;19.238;2022-12-04T16:29:59;35.65;;;15.80;;
74849;SDS011;63397;47.480;19.238;2022-12-04T16:33:01;38.50;;;16.48;;
74849;SDS011;63397;47.480;19.238;2022-12-04T16:36:04;38.20;;;16.52;;
74849;SDS011;63397;47.480;19.238;2022-12-04T16:39:06;39.67;;;17.63;;
74849;SDS011;63397;47.480;19.238;2022-12-04T16:42:16;37.83;;;16.23;;
74849;SDS011;63397;47.480;19.238;2022-12-04T16:45:21;36.88;;;16.60;;
74849;SDS011;63397;47.480;19.238;2022-12-04T16:48:24;37.78;;;17.23;;
74849;SDS011;63397;47.480;19.238;2022-12-04T16:51:28;42.40;;;16.88;;
74849;SDS011;63397;47.480;19.238;2022-12-04T16:54:30;40.47;;;17.67;;
74849;SDS011;63397;47.480;19.238;2022-12-04T16:57:33;39.30;;;16.93;;
74849;SDS011;63397;47.480;19.238;2022-12-04T17:00:36;37.33;;;16.92;;
74849;SDS011;63397;47.480;19.238;2022-12-04T17:03:38;38.08;;;18.00;;
74849;SDS011;63397;47.480;19.238;2022-12-04T17:06:41;38.90;;;17.25;;
74849;SDS011;63397;47.480;19.238;2022-12-04T17:09:44;41.78;;;18.92;;
74849;SDS011;63397;47.480;19.238;2022-12-04T17:12:47;42.37;;;18.73;;
74849;SDS011;63397;47.480;19.238;2022-12-04T17:15:49;41.45;;;18.15;;
74849;SDS011;63397;47.480;19.238;2022-12-04T17:18:51;44.35;;;19.90;;
74849;SDS011;63397;47.480;19.238;2022-12-04T17:21:54;41.60;;;18.83;;
74849;SDS011;63397;47.480;19.238;2022-12-04T17:24:56;42.67;;;19.00;;
74849;SDS011;63397;47.480;19.238;2022-12-04T17:28:00;41.70;;;18.90;;
74849;SDS011;63397;47.480;19.238;2022-12-04T17:31:03;41.83;;;19.15;;
74849;SDS011;63397;47.480;19.238;2022-12-04T17:34:07;39.65;;;18.90;;
74849;SDS011;63397;47.480;19.238;2022-12-04T17:37:09;43.15;;;18.50;;
74849;SDS011;63397;47.480;19.238;2022-12-04T17:40:12;39.30;;;17.85;;
74849;SDS011;63397;47.480;19.238;2022-12-04T17:43:16;42.50;;;19.40;;
74849;SDS011;63397;47.480;19.238;2022-12-04T17:46:23;44.53;;;18.88;;
74849;SDS011;63397;47.480;19.238;2022-12-04T17:49:26;42.03;;;18.15;;
74849;SDS011;63397;47.480;19.238;2022-12-04T17:52:28;41.80;;;17.98;;
74849;SDS011;63397;47.480;19.238;2022-12-04T17:55:32;41.15;;;18.48;;
74849;SDS011;63397;47.480;19.238;2022-12-04T17:58:35;36.47;;;17.37;;
74849;SDS011;63397;47.480;19.238;2022-12-04T18:01:37;38.58;;;17.25;;
74849;SDS011;63397;47.480;19.238;2022-12-04T18:04:40;42.88;;;18.10;;
74849;SDS011;63397;47.480;19.238;2022-12-04T18:07:42;41.03;;;17.67;;
74849;SDS011;63397;47.480;19.238;2022-12-04T18:10:45;39.80;;;17.20;;
74849;SDS011;63397;47.480;19.238;2022-12-04T18:13:47;35.97;;;16.47;;
74849;SDS011;63397;47.480;19.238;2022-12-04T18:16:51;36.60;;;16.27;;
74849;SDS011;63397;47.480;19.238;2022-12-04T18:19:54;34.00;;;15.65;;
74849;SDS011;63397;47.480;19.238;2022-12-04T18:23:03;36.47;;;16.02;;
74849;SDS011;63397;47.480;19.238;2022-12-04T18:26:06;35.38;;;15.10;;
74849;SDS011;63397;47.480;19.238;2022-12-04T18:29:10;41.50;;;16.27;;
74849;SDS011;63397;47.480;19.238;2022-12-04T18:32:13;38.45;;;18.05;;
74849;SDS011;63397;47.480;19.238;2022-12-04T18:35:15;37.08;;;16.30;;
74849;SDS011;63397;47.480;19.238;2022-12-04T18:38:18;40.60;;;16.65;;
74849;SDS011;63397;47.480;19.238;2022-12-04T18:41:20;37.08;;;16.27;;
74849;SDS011;63397;47.480;19.238;2022-12-04T18:44:23;37.00;;;16.27;;
74849;SDS011;63397;47.480;19.238;2022-12-04T18:47:25;35.00;;;15.52;;
74849;SDS011;63397;47.480;19.238;2022-12-04T18:50:28;34.65;;;15.27;;
74849;SDS011;63397;47.480;19.238;2022-12-04T18:53:30;34.53;;;14.15;;
74849;SDS011;63397;47.480;19.238;2022-12-04T18:56:33;35.45;;;14.63;;
74849;SDS011;63397;47.480;19.238;2022-12-04T18:59:36;33.20;;;15.40;;
74849;SDS011;63397;47.480;19.238;2022-12-04T19:02:39;40.20;;;16.05;;
74849;SDS011;63397;47.480;19.238;2022-12-04T19:05:46;34.30;;;16.45;;
74849;SDS011;63397;47.480;19.238;2022-12-04T19:08:49;33.00;;;15.65;;
74849;SDS011;63397;47.480;19.238;2022-12-04T19:11:51;38.15;;;15.27;;
74849;SDS011;63397;47.480;19.238;2022-12-04T19:14:54;37.37;;;15.30;;
74849;SDS011;63397;47.480;19.238;2022-12-04T19:17:56;34.30;;;15.15;;
74849;SDS011;63397;47.480;19.238;2022-12-04T19:20:58;35.30;;;15.40;;
74849;SDS011;63397;47.480;19.238;2022-12-04T19:24:01;31.55;;;13.60;;